PFO weather

Paphos International Airport
Paphos, Paphos District, Cyprus

Public forecast

Using degrees Celsius for public forecast. Weather courtesy of forecast.io.

Current aviation weather report (METAR) for Paphos International Airport

Retrieved 2019/10/21 00:30 UTC (29 minutes ago):

LCPH 210030Z AUTO 02006KT 9999 NCD 18/12 Q1015

Aviation forecast (TAF) for Paphos International Airport

Retrieved 2019-10-21 00:30 UTC (29 minutes ago):

TAF LCPH 202330Z 2100/2124 01007KT 9999 FEW020 BECMG 2108/2111 28015KT PROB30 TEMPO 2109/2115 FEW025CB BECMG 2118/2122 02007KT